createdAt,value
2018-06-25T00:00:09.582Z,0
2018-06-25T00:01:10.127Z,0
2018-06-25T00:02:10.517Z,0
2018-06-25T00:03:10.437Z,0
2018-06-25T00:04:10.183Z,0
2018-06-25T00:05:09.671Z,0
2018-06-25T00:06:09.969Z,0
2018-06-25T00:07:09.973Z,0
2018-06-25T00:08:10.288Z,0
2018-06-25T00:09:10.304Z,0
2018-06-25T00:10:10.318Z,0
2018-06-25T00:11:10.322Z,0
2018-06-25T00:12:10.376Z,0
2018-06-25T00:13:10.359Z,0
2018-06-25T00:14:10.405Z,0
2018-06-25T00:15:10.673Z,0
2018-06-25T00:16:10.429Z,0
2018-06-25T00:17:10.729Z,0
2018-06-25T00:18:10.189Z,0
2018-06-25T00:19:10.212Z,0
2018-06-25T00:20:10.251Z,0
2018-06-25T00:21:09.984Z,0
2018-06-25T00:22:10.283Z,0
2018-06-25T00:23:09.757Z,0
2018-06-25T00:24:10.314Z,0
2018-06-25T00:25:10.864Z,0
2018-06-25T00:26:10.354Z,0
2018-06-25T00:27:10.655Z,0
2018-06-25T00:28:10.128Z,0
2018-06-25T00:29:10.416Z,0
2018-06-25T00:30:10.973Z,0
2018-06-25T00:31:10.715Z,0
2018-06-25T00:32:10.485Z,0
2018-06-25T00:33:10.485Z,0
2018-06-25T00:34:10.239Z,0
2018-06-25T00:35:10.266Z,0
2018-06-25T00:36:10.554Z,0
2018-06-25T00:37:11.101Z,0
2018-06-25T00:38:10.852Z,0
2018-06-25T00:39:10.870Z,0
2018-06-25T00:40:11.169Z,0
2018-06-25T00:41:11.175Z,0
2018-06-25T00:42:10.411Z,0
2018-06-25T00:43:10.685Z,0
2018-06-25T00:44:10.702Z,0
2018-06-25T00:45:11.011Z,0
2018-06-25T00:46:11.013Z,0
2018-06-25T00:47:11.034Z,0
2018-06-25T00:48:11.048Z,0
2018-06-25T00:49:10.799Z,0
2018-06-25T00:50:11.351Z,0
2018-06-25T00:51:11.104Z,0
2018-06-25T00:52:11.082Z,0
2018-06-25T00:53:10.875Z,0
2018-06-25T00:54:11.433Z,0
2018-06-25T00:55:11.181Z,0
2018-06-25T00:56:11.204Z,0
2018-06-25T00:57:11.493Z,0
2018-06-25T00:58:11.242Z,0
2018-06-25T00:59:10.999Z,0
2018-06-25T01:00:11.279Z,0
2018-06-25T01:01:11.301Z,0
2018-06-25T01:02:11.051Z,0
2018-06-25T01:03:11.345Z,0
2018-06-25T01:04:11.088Z,0
2018-06-25T01:05:11.118Z,0
2018-06-25T01:06:12.148Z,0
2018-06-25T01:07:11.426Z,0
2018-06-25T01:08:11.441Z,0
2018-06-25T01:09:10.926Z,0
2018-06-25T01:10:11.215Z,0
2018-06-25T01:11:11.764Z,0
2018-06-25T01:12:11.515Z,0
2018-06-25T01:13:11.531Z,0
2018-06-25T01:14:11.827Z,0
2018-06-25T01:15:11.584Z,0
2018-06-25T01:16:11.600Z,0
2018-06-25T01:17:11.881Z,0
2018-06-25T01:18:11.904Z,0
2018-06-25T01:19:11.650Z,0
2018-06-25T01:20:11.669Z,0
2018-06-25T01:21:11.688Z,0
2018-06-25T01:22:11.713Z,0
2018-06-25T01:23:11.732Z,0
2018-06-25T01:24:12.030Z,0
2018-06-25T01:25:11.499Z,0
2018-06-25T01:26:12.112Z,0
2018-06-25T01:27:11.274Z,0
2018-06-25T01:28:11.829Z,0
2018-06-25T01:29:11.582Z,0
2018-06-25T01:30:12.133Z,0
2018-06-25T01:31:11.885Z,0
2018-06-25T01:32:11.946Z,0
2018-06-25T01:33:12.188Z,0
2018-06-25T01:34:12.214Z,0
2018-06-25T01:35:11.976Z,0
2018-06-25T01:36:11.990Z,0
2018-06-25T01:37:12.279Z,0
2018-06-25T01:38:12.031Z,0
2018-06-25T01:39:11.791Z,0
2018-06-25T01:40:12.075Z,0
2018-06-25T01:41:11.815Z,0
2018-06-25T01:42:11.847Z,0
2018-06-25T01:43:12.390Z,0
2018-06-25T01:44:12.409Z,0
2018-06-25T01:45:11.897Z,0
2018-06-25T01:46:11.969Z,0
2018-06-25T01:47:12.480Z,0
2018-06-25T01:48:11.690Z,0
2018-06-25T01:49:12.506Z,0
2018-06-25T01:50:12.260Z,0
2018-06-25T01:51:12.016Z,0
2018-06-25T01:52:12.033Z,0
2018-06-25T01:53:12.334Z,0
2018-06-25T01:54:12.630Z,0
2018-06-25T01:55:12.094Z,0
2018-06-25T01:56:12.113Z,0
2018-06-25T01:57:12.669Z,0
2018-06-25T01:58:12.418Z,0
2018-06-25T01:59:12.436Z,0
2018-06-25T02:00:11.918Z,0
2018-06-25T02:01:12.476Z,0
2018-06-25T02:02:12.756Z,0
2018-06-25T02:03:12.245Z,0
2018-06-25T02:04:12.803Z,0
2018-06-25T02:05:12.823Z,0
2018-06-25T02:06:12.575Z,0
2018-06-25T02:07:12.859Z,0
2018-06-25T02:08:12.621Z,0
2018-06-25T02:09:12.635Z,0
2018-06-25T02:10:12.925Z,0
2018-06-25T02:11:12.667Z,0
2018-06-25T02:12:12.683Z,0
2018-06-25T02:13:12.703Z,0
2018-06-25T02:14:12.458Z,0
2018-06-25T02:15:12.211Z,0
2018-06-25T02:16:13.050Z,0
2018-06-25T02:17:12.790Z,0
2018-06-25T02:18:12.801Z,0
2018-06-25T02:19:12.826Z,0
2018-06-25T02:20:12.312Z,0
2018-06-25T02:21:12.866Z,0
2018-06-25T02:22:12.625Z,0
2018-06-25T02:23:13.166Z,0
2018-06-25T02:24:12.661Z,0
2018-06-25T02:25:13.211Z,0
2018-06-25T02:26:12.692Z,0
2018-06-25T02:27:12.775Z,0
2018-06-25T02:28:12.464Z,0
2018-06-25T02:29:13.283Z,0
2018-06-25T02:30:13.042Z,0
2018-06-25T02:31:12.790Z,0
2018-06-25T02:32:13.111Z,0
2018-06-25T02:33:13.240Z,0
2018-06-25T02:34:13.403Z,0
2018-06-25T02:35:13.436Z,0
2018-06-25T02:36:12.892Z,0
2018-06-25T02:37:13.446Z,0
2018-06-25T02:38:13.471Z,0
2018-06-25T02:39:13.498Z,0
2018-06-25T02:40:13.499Z,0
2018-06-25T02:41:13.259Z,0
2018-06-25T02:42:13.579Z,0
2018-06-25T02:43:13.309Z,0
2018-06-25T02:44:13.335Z,0
2018-06-25T02:45:12.808Z,0
2018-06-25T02:46:13.132Z,0
2018-06-25T02:47:13.383Z,0
2018-06-25T02:48:13.410Z,0
2018-06-25T02:49:13.682Z,0
2018-06-25T02:50:13.700Z,0
2018-06-25T02:51:13.188Z,0
2018-06-25T02:52:13.781Z,0
2018-06-25T02:53:13.768Z,0
2018-06-25T02:54:13.781Z,0
2018-06-25T02:55:13.801Z,0
2018-06-25T02:56:13.851Z,0
2018-06-25T02:57:13.840Z,0
2018-06-25T02:58:13.334Z,0
2018-06-25T02:59:14.102Z,0
2018-06-25T03:00:13.901Z,0
2018-06-25T03:01:13.665Z,0
2018-06-25T03:02:13.940Z,0
2018-06-25T03:03:13.690Z,0
2018-06-25T03:04:13.973Z,0
2018-06-25T03:05:14.007Z,0
2018-06-25T03:06:13.776Z,0
2018-06-25T03:07:13.761Z,0
2018-06-25T03:08:13.963Z,0
2018-06-25T03:09:13.526Z,0
2018-06-25T03:10:13.814Z,0
2018-06-25T03:11:13.843Z,0
2018-06-25T03:12:13.855Z,0
2018-06-25T03:13:13.610Z,0
2018-06-25T03:14:13.899Z,0
2018-06-25T03:15:13.649Z,0
2018-06-25T03:16:13.936Z,0
2018-06-25T03:17:14.236Z,0
2018-06-25T03:18:13.979Z,0
2018-06-25T03:19:14.272Z,0
2018-06-25T03:20:14.295Z,0
2018-06-25T03:21:14.044Z,0
2018-06-25T03:22:14.054Z,0
2018-06-25T03:23:13.805Z,0
2018-06-25T03:24:14.090Z,0
2018-06-25T03:25:14.113Z,0
2018-06-25T03:26:13.862Z,0
2018-06-25T03:27:14.417Z,0
2018-06-25T03:28:14.175Z,0
2018-06-25T03:29:14.457Z,0
2018-06-25T03:30:14.487Z,0
2018-06-25T03:31:14.506Z,0
2018-06-25T03:32:14.039Z,0
2018-06-25T03:33:14.001Z,0
2018-06-25T03:34:14.301Z,0
2018-06-25T03:35:14.033Z,0
2018-06-25T03:36:14.327Z,0
2018-06-25T03:37:14.341Z,0
2018-06-25T03:38:14.624Z,0
2018-06-25T03:39:14.678Z,0
2018-06-25T03:40:14.674Z,0
2018-06-25T03:41:14.692Z,0
2018-06-25T03:42:14.436Z,0
2018-06-25T03:43:14.507Z,0
2018-06-25T03:44:14.787Z,0
2018-06-25T03:45:14.769Z,0
2018-06-25T03:46:14.518Z,0
2018-06-25T03:47:14.803Z,0
2018-06-25T03:48:14.835Z,0
2018-06-25T03:49:14.308Z,0
2018-06-25T03:50:14.326Z,0
2018-06-25T03:51:14.620Z,0
2018-06-25T03:52:14.642Z,0
2018-06-25T03:53:14.666Z,0
2018-06-25T03:54:14.981Z,0
2018-06-25T03:55:14.690Z,0
2018-06-25T03:56:14.455Z,0
2018-06-25T03:57:14.831Z,0
2018-06-25T03:58:15.021Z,0
2018-06-25T03:59:14.767Z,0
2018-06-25T04:00:14.788Z,0
2018-06-25T04:01:15.056Z,0
2018-06-25T04:02:15.090Z,0
2018-06-25T04:03:15.120Z,0
2018-06-25T04:04:14.858Z,0
2018-06-25T04:05:15.157Z,0
2018-06-25T04:06:14.937Z,0
2018-06-25T04:07:14.924Z,0
2018-06-25T04:08:14.941Z,0
2018-06-25T04:09:14.964Z,0
2018-06-25T04:10:14.983Z,0
2018-06-25T04:11:15.273Z,0
2018-06-25T04:12:15.702Z,0
2018-06-25T04:13:15.040Z,0
2018-06-25T04:14:14.520Z,0
2018-06-25T04:15:15.341Z,5
2018-06-25T04:16:15.101Z,5
2018-06-25T04:17:15.113Z,5
2018-06-25T04:18:15.807Z,5
2018-06-25T04:19:15.153Z,5
2018-06-25T04:20:15.454Z,5
2018-06-25T04:21:15.213Z,5
2018-06-25T04:22:15.525Z,5
2018-06-25T04:23:14.969Z,5
2018-06-25T04:24:15.523Z,5
2018-06-25T04:25:15.542Z,5
2018-06-25T04:26:15.302Z,5
2018-06-25T04:27:15.317Z,5
2018-06-25T04:28:15.061Z,5
2018-06-25T04:29:15.640Z,5
2018-06-25T04:30:15.102Z,5
2018-06-25T04:31:15.121Z,5
2018-06-25T04:32:15.418Z,10
2018-06-25T04:33:15.175Z,5
2018-06-25T04:34:15.444Z,5
2018-06-25T04:35:15.731Z,5
2018-06-25T04:36:14.952Z,5
2018-06-25T04:37:15.776Z,5
2018-06-25T04:38:15.799Z,10
2018-06-25T04:39:15.858Z,5
2018-06-25T04:40:15.665Z,5
2018-06-25T04:41:15.313Z,10
2018-06-25T04:42:15.071Z,10
2018-06-25T04:43:15.354Z,10
2018-06-25T04:44:15.375Z,10
2018-06-25T04:45:15.940Z,10
2018-06-25T04:46:15.953Z,10
2018-06-25T04:47:15.714Z,15
2018-06-25T04:48:15.453Z,15
2018-06-25T04:49:15.473Z,15
2018-06-25T04:50:15.760Z,10
2018-06-25T04:51:15.528Z,10
2018-06-25T04:52:16.072Z,10
2018-06-25T04:53:15.815Z,10
2018-06-25T04:54:15.834Z,10
2018-06-25T04:55:16.114Z,10
2018-06-25T04:56:15.610Z,10
2018-06-25T04:57:15.368Z,15
2018-06-25T04:58:15.915Z,15
2018-06-25T04:59:16.204Z,15
2018-06-25T05:00:15.954Z,15
2018-06-25T05:01:16.302Z,10
2018-06-25T05:02:16.305Z,10
2018-06-25T05:03:16.019Z,10
2018-06-25T05:04:16.082Z,10
2018-06-25T05:05:15.779Z,10
2018-06-25T05:06:15.800Z,10
2018-06-25T05:07:16.091Z,10
2018-06-25T05:08:16.115Z,10
2018-06-25T05:09:16.144Z,10
2018-06-25T05:10:15.898Z,10
2018-06-25T05:11:16.666Z,10
2018-06-25T05:12:15.922Z,10
2018-06-25T05:13:16.520Z,10
2018-06-25T05:14:15.971Z,10
2018-06-25T05:15:15.981Z,10
2018-06-25T05:16:16.541Z,10
2018-06-25T05:17:16.570Z,10
2018-06-25T05:18:16.096Z,10
2018-06-25T05:19:16.600Z,5
2018-06-25T05:20:16.619Z,5
2018-06-25T05:21:16.101Z,5
2018-06-25T05:22:16.383Z,10
2018-06-25T05:23:16.401Z,10
2018-06-25T05:24:16.426Z,10
2018-06-25T05:25:16.446Z,10
2018-06-25T05:26:16.460Z,10
2018-06-25T05:27:16.214Z,10
2018-06-25T05:28:16.507Z,10
2018-06-25T05:29:17.071Z,10
2018-06-25T05:30:16.546Z,5
2018-06-25T05:31:16.568Z,5
2018-06-25T05:32:16.587Z,5
2018-06-25T05:33:16.596Z,5
2018-06-25T05:34:16.886Z,10
2018-06-25T05:35:16.909Z,10
2018-06-25T05:36:16.933Z,15
2018-06-25T05:37:16.949Z,15
2018-06-25T05:38:16.966Z,15
2018-06-25T05:39:16.983Z,15
2018-06-25T05:40:16.744Z,15
2018-06-25T05:41:17.028Z,15
2018-06-25T05:42:16.783Z,15
2018-06-25T05:43:16.803Z,15
2018-06-25T05:44:16.819Z,20
2018-06-25T05:45:16.845Z,15
2018-06-25T05:46:17.137Z,15
2018-06-25T05:47:16.666Z,20
2018-06-25T05:48:17.164Z,20
2018-06-25T05:49:16.384Z,20
2018-06-25T05:50:17.206Z,20
2018-06-25T05:51:16.959Z,20
2018-06-25T05:52:16.979Z,20
2018-06-25T05:53:16.996Z,20
2018-06-25T05:54:17.030Z,20
2018-06-25T05:55:17.037Z,20
2018-06-25T05:56:17.060Z,20
2018-06-25T05:57:17.336Z,20
2018-06-25T05:58:17.358Z,20
2018-06-25T05:59:17.387Z,15
2018-06-25T06:00:17.405Z,15
2018-06-25T06:01:17.421Z,20
2018-06-25T06:02:17.169Z,20
2018-06-25T06:03:17.196Z,20
2018-06-25T06:04:17.063Z,20
2018-06-25T06:05:17.233Z,20
2018-06-25T06:06:17.260Z,20
2018-06-25T06:07:17.596Z,25
2018-06-25T06:08:17.560Z,25
2018-06-25T06:09:17.581Z,25
2018-06-25T06:10:17.360Z,25
2018-06-25T06:11:17.349Z,25
2018-06-25T06:12:17.638Z,25
2018-06-25T06:13:17.416Z,25
2018-06-25T06:14:17.245Z,25
2018-06-25T06:15:17.735Z,25
2018-06-25T06:16:17.455Z,25
2018-06-25T06:17:17.291Z,25
2018-06-25T06:18:17.223Z,25
2018-06-25T06:19:17.514Z,25
2018-06-25T06:20:17.795Z,25
2018-06-25T06:21:17.298Z,25
2018-06-25T06:22:17.569Z,25
2018-06-25T06:23:17.326Z,25
2018-06-25T06:24:17.942Z,30
2018-06-25T06:25:17.642Z,30
2018-06-25T06:26:17.401Z,30
2018-06-25T06:27:17.675Z,30
2018-06-25T06:28:17.720Z,25
2018-06-25T06:29:17.449Z,25
2018-06-25T06:30:17.748Z,30
2018-06-25T06:31:17.758Z,30
2018-06-25T06:32:17.951Z,30
2018-06-25T06:33:17.538Z,30
2018-06-25T06:34:17.810Z,30
2018-06-25T06:35:17.301Z,35
2018-06-25T06:36:17.855Z,30
2018-06-25T06:37:17.872Z,30
2018-06-25T06:38:17.893Z,30
2018-06-25T06:39:17.943Z,30
2018-06-25T06:40:18.468Z,30
2018-06-25T06:41:17.961Z,35
2018-06-25T06:42:18.284Z,35
2018-06-25T06:43:17.745Z,35
2018-06-25T06:44:17.747Z,35
2018-06-25T06:45:17.822Z,35
2018-06-25T06:46:18.064Z,35
2018-06-25T06:47:18.345Z,35
2018-06-25T06:48:18.107Z,35
2018-06-25T06:49:17.855Z,35
2018-06-25T06:50:18.143Z,35
2018-06-25T06:51:18.156Z,35
2018-06-25T06:52:18.178Z,35
2018-06-25T06:53:18.257Z,35
2018-06-25T06:54:17.682Z,35
2018-06-25T06:55:18.510Z,35
2018-06-25T06:56:18.263Z,35
2018-06-25T06:57:17.745Z,35
2018-06-25T06:58:18.309Z,35
2018-06-25T06:59:18.055Z,35
2018-06-25T07:00:18.345Z,35
2018-06-25T07:01:18.638Z,35
2018-06-25T07:02:18.386Z,35
2018-06-25T07:03:18.469Z,30
2018-06-25T07:04:18.427Z,30
2018-06-25T07:05:17.908Z,35
2018-06-25T07:06:18.733Z,35
2018-06-25T07:07:17.685Z,40
2018-06-25T07:08:18.508Z,40
2018-06-25T07:09:18.862Z,40
2018-06-25T07:10:19.014Z,40
2018-06-25T07:11:18.850Z,40
2018-06-25T07:12:18.856Z,35
2018-06-25T07:13:18.348Z,30
2018-06-25T07:14:18.738Z,25
2018-06-25T07:15:18.921Z,15
2018-06-25T07:16:18.409Z,15
2018-06-25T07:17:18.701Z,15
2018-06-25T07:18:18.984Z,15
2018-06-25T07:19:18.739Z,20
2018-06-25T07:20:18.500Z,15
2018-06-25T07:21:18.807Z,15
2018-06-25T07:22:19.070Z,15
2018-06-25T07:23:18.562Z,10
2018-06-25T07:24:18.586Z,10
2018-06-25T07:25:19.137Z,10
2018-06-25T07:26:19.152Z,15
2018-06-25T07:27:19.182Z,15
2018-06-25T07:28:19.194Z,15
2018-06-25T07:29:19.610Z,15
2018-06-25T07:30:19.285Z,15
2018-06-25T07:31:18.720Z,15
2018-06-25T07:32:19.280Z,15
2018-06-25T07:33:19.067Z,20
2018-06-25T07:34:19.313Z,25
2018-06-25T07:35:18.819Z,35
2018-06-25T07:36:19.092Z,40
2018-06-25T07:37:19.388Z,50
2018-06-25T07:38:19.419Z,50
2018-06-25T07:39:18.627Z,40
2018-06-25T07:40:19.449Z,35
2018-06-25T07:41:19.473Z,40
2018-06-25T07:42:18.959Z,40
2018-06-25T07:43:19.260Z,45
2018-06-25T07:44:19.258Z,45
2018-06-25T07:45:19.283Z,45
2018-06-25T07:46:19.301Z,40
2018-06-25T07:47:19.999Z,50
2018-06-25T07:48:19.344Z,45
2018-06-25T07:49:19.644Z,45
2018-06-25T07:50:19.121Z,45
2018-06-25T07:51:19.682Z,40
2018-06-25T07:52:19.707Z,40
2018-06-25T07:53:19.349Z,35
2018-06-25T07:54:19.487Z,35
2018-06-25T07:55:19.496Z,35
2018-06-25T07:56:19.526Z,35
2018-06-25T07:57:19.278Z,35
2018-06-25T07:58:19.554Z,35
2018-06-25T07:59:19.853Z,35
2018-06-25T08:00:19.088Z,40
2018-06-25T08:01:19.889Z,40
2018-06-25T08:02:19.642Z,45
2018-06-25T08:03:19.673Z,45
2018-06-25T08:04:19.687Z,45
2018-06-25T08:05:19.978Z,45
2018-06-25T08:06:19.474Z,45
2018-06-25T08:07:20.030Z,45
2018-06-25T08:08:19.517Z,40
2018-06-25T08:09:19.815Z,45
2018-06-25T08:10:20.075Z,45
2018-06-25T08:11:19.843Z,45
2018-06-25T08:12:20.172Z,45
2018-06-25T08:13:19.906Z,40
2018-06-25T08:14:19.911Z,40
2018-06-25T08:15:20.195Z,40
2018-06-25T08:16:19.942Z,40
2018-06-25T08:17:19.975Z,40
2018-06-25T08:18:20.267Z,35
2018-06-25T08:19:20.284Z,30
2018-06-25T08:20:20.198Z,25
2018-06-25T08:21:20.329Z,25
2018-06-25T08:22:20.351Z,25
2018-06-25T08:23:20.109Z,20
2018-06-25T08:24:20.394Z,20
2018-06-25T08:25:20.411Z,25
2018-06-25T08:26:20.161Z,30
2018-06-25T08:27:20.456Z,35
2018-06-25T08:28:19.403Z,40
2018-06-25T08:29:19.960Z,50
2018-06-25T08:30:20.924Z,55
2018-06-25T08:31:20.006Z,60
2018-06-25T08:32:20.312Z,60
2018-06-25T08:33:19.783Z,50
2018-06-25T08:34:21.329Z,45
2018-06-25T08:35:20.124Z,45
2018-06-25T08:36:20.654Z,35
2018-06-25T08:37:19.877Z,30
2018-06-25T08:38:20.692Z,25
2018-06-25T08:39:20.446Z,20
2018-06-25T08:40:20.733Z,25
2018-06-25T08:41:20.962Z,25
2018-06-25T08:42:20.244Z,25
2018-06-25T08:43:20.593Z,25
2018-06-25T08:44:20.830Z,30
2018-06-25T08:45:20.876Z,30
2018-06-25T08:46:20.608Z,30
2018-06-25T08:47:20.899Z,30
2018-06-25T08:48:20.921Z,35
2018-06-25T08:49:20.132Z,30
2018-06-25T08:50:20.436Z,30
2018-06-25T08:51:20.984Z,30
2018-06-25T08:52:20.479Z,30
2018-06-25T08:53:20.772Z,30
2018-06-25T08:54:21.068Z,25
2018-06-25T08:55:20.817Z,30
2018-06-25T08:56:20.622Z,30
2018-06-25T08:57:20.588Z,35
2018-06-25T08:58:21.156Z,30
2018-06-25T08:59:20.903Z,30
2018-06-25T09:00:20.922Z,35
2018-06-25T09:01:20.969Z,30
2018-06-25T09:02:20.961Z,35
2018-06-25T09:03:21.509Z,35
2018-06-25T09:04:20.819Z,35
2018-06-25T09:05:21.275Z,40
2018-06-25T09:06:21.327Z,40
2018-06-25T09:07:20.812Z,30
2018-06-25T09:08:21.103Z,30
2018-06-25T09:09:21.396Z,30
2018-06-25T09:10:21.461Z,30
2018-06-25T09:11:21.167Z,35
2018-06-25T09:12:21.466Z,30
2018-06-25T09:13:21.211Z,30
2018-06-25T09:14:21.496Z,35
2018-06-25T09:15:22.196Z,40
2018-06-25T09:16:21.555Z,45
2018-06-25T09:17:21.302Z,35
2018-06-25T09:18:21.323Z,35
2018-06-25T09:19:21.628Z,35
2018-06-25T09:20:21.111Z,30
2018-06-25T09:21:21.400Z,30
2018-06-25T09:22:21.633Z,30
2018-06-25T09:23:21.446Z,25
2018-06-25T09:24:21.743Z,25
2018-06-25T09:25:21.818Z,25
2018-06-25T09:26:21.779Z,25
2018-06-25T09:27:21.539Z,25
2018-06-25T09:28:21.567Z,25
2018-06-25T09:29:21.587Z,25
2018-06-25T09:30:21.606Z,30
2018-06-25T09:31:21.892Z,30
2018-06-25T09:32:21.917Z,40
2018-06-25T09:33:21.683Z,50
2018-06-25T09:34:21.972Z,55
2018-06-25T09:35:21.857Z,50
2018-06-25T09:36:21.755Z,50
2018-06-25T09:37:22.044Z,50
2018-06-25T09:38:21.527Z,45
2018-06-25T09:39:21.822Z,40
2018-06-25T09:40:21.854Z,45
2018-06-25T09:41:22.973Z,40
2018-06-25T09:42:21.346Z,40
2018-06-25T09:43:21.917Z,45
2018-06-25T09:44:22.204Z,50
2018-06-25T09:45:22.232Z,45
2018-06-25T09:46:21.975Z,40
2018-06-25T09:47:21.739Z,45
2018-06-25T09:48:22.088Z,40
2018-06-25T09:49:22.314Z,45
2018-06-25T09:50:22.343Z,50
2018-06-25T09:51:22.380Z,45
2018-06-25T09:52:22.116Z,45
2018-06-25T09:53:22.142Z,45
2018-06-25T09:54:22.440Z,45
2018-06-25T09:55:22.357Z,40
2018-06-25T09:56:22.226Z,35
2018-06-25T09:57:22.236Z,30
2018-06-25T09:58:22.535Z,25
2018-06-25T09:59:22.315Z,20
2018-06-25T10:00:22.310Z,20
2018-06-25T10:01:22.061Z,25
2018-06-25T10:02:22.371Z,35
2018-06-25T10:03:22.655Z,40
2018-06-25T10:04:22.410Z,40
2018-06-25T10:05:22.701Z,45
2018-06-25T10:06:21.926Z,50
2018-06-25T10:07:22.774Z,55
2018-06-25T10:08:22.236Z,60
2018-06-25T10:09:21.989Z,45
2018-06-25T10:10:22.287Z,40
2018-06-25T10:11:22.577Z,35
2018-06-25T10:12:22.334Z,50
2018-06-25T10:13:22.357Z,40
2018-06-25T10:14:22.377Z,55
2018-06-25T10:15:22.680Z,55
2018-06-25T10:16:22.964Z,45
2018-06-25T10:17:22.720Z,35
2018-06-25T10:18:22.481Z,35
2018-06-25T10:19:22.768Z,30
2018-06-25T10:20:22.527Z,25
2018-06-25T10:21:23.057Z,30
2018-06-25T10:22:22.572Z,45
2018-06-25T10:23:22.869Z,45
2018-06-25T10:24:22.890Z,45
2018-06-25T10:25:22.643Z,45
2018-06-25T10:26:23.216Z,55
2018-06-25T10:27:23.230Z,60
2018-06-25T10:28:23.265Z,70
2018-06-25T10:29:22.748Z,80
2018-06-25T10:30:23.300Z,70
2018-06-25T10:31:23.342Z,65
2018-06-25T10:32:23.092Z,60
2018-06-25T10:33:23.113Z,70
2018-06-25T10:34:23.131Z,80
2018-06-25T10:35:23.440Z,75
2018-06-25T10:36:23.185Z,65
2018-06-25T10:37:23.217Z,70
2018-06-25T10:38:23.515Z,65
2018-06-25T10:39:23.528Z,75
2018-06-25T10:40:23.285Z,65
2018-06-25T10:41:23.588Z,65
2018-06-25T10:42:23.780Z,70
2018-06-25T10:43:23.641Z,80
2018-06-25T10:44:23.664Z,75
2018-06-25T10:45:23.413Z,80
2018-06-25T10:46:22.905Z,80
2018-06-25T10:47:23.482Z,75
2018-06-25T10:48:23.226Z,75
2018-06-25T10:49:23.790Z,70
2018-06-25T10:50:23.542Z,70
2018-06-25T10:51:23.633Z,65
2018-06-25T10:52:23.869Z,65
2018-06-25T10:53:23.092Z,60
2018-06-25T10:54:23.646Z,55
2018-06-25T10:55:23.936Z,50
2018-06-25T10:56:23.971Z,50
2018-06-25T10:57:24.006Z,45
2018-06-25T10:58:23.750Z,45
2018-06-25T10:59:24.062Z,50
2018-06-25T11:00:24.343Z,45
2018-06-25T11:01:23.968Z,45
2018-06-25T11:02:24.129Z,45
2018-06-25T11:03:23.881Z,45
2018-06-25T11:04:23.656Z,45
2018-06-25T11:05:23.937Z,45
2018-06-25T11:06:24.225Z,50
2018-06-25T11:07:25.185Z,50
2018-06-25T11:08:23.751Z,50
2018-06-25T11:09:24.310Z,50
2018-06-25T11:10:24.332Z,55
2018-06-25T11:11:24.137Z,60
2018-06-25T11:12:23.857Z,60
2018-06-25T11:13:24.150Z,60
2018-06-25T11:14:24.443Z,40
2018-06-25T11:15:24.480Z,35
2018-06-25T11:16:24.501Z,30
2018-06-25T11:17:24.255Z,30
2018-06-25T11:18:24.281Z,30
2018-06-25T11:19:24.312Z,30
2018-06-25T11:20:24.338Z,35
2018-06-25T11:21:24.098Z,40
2018-06-25T11:22:24.125Z,45
2018-06-25T11:23:24.418Z,55
2018-06-25T11:24:24.711Z,65
2018-06-25T11:25:24.475Z,85
2018-06-25T11:26:24.493Z,95
2018-06-25T11:27:24.863Z,95
2018-06-25T11:28:24.286Z,95
2018-06-25T11:29:24.584Z,95
2018-06-25T11:30:24.390Z,85
2018-06-25T11:31:24.369Z,90
2018-06-25T11:32:24.391Z,80
2018-06-25T11:33:24.421Z,70
2018-06-25T11:34:24.719Z,70
2018-06-25T11:35:24.474Z,70
2018-06-25T11:36:24.872Z,65
2018-06-25T11:37:24.536Z,70
2018-06-25T11:38:24.569Z,85
2018-06-25T11:39:24.851Z,100
2018-06-25T11:40:24.893Z,95
2018-06-25T11:41:24.918Z,95
2018-06-25T11:42:24.666Z,85
2018-06-25T11:43:24.960Z,85
2018-06-25T11:44:25.254Z,75
2018-06-25T11:45:24.487Z,70
2018-06-25T11:46:25.316Z,70
2018-06-25T11:47:25.339Z,65
2018-06-25T11:48:24.575Z,60
2018-06-25T11:49:25.410Z,65
2018-06-25T11:50:25.171Z,70
2018-06-25T11:51:25.551Z,75
2018-06-25T11:52:25.222Z,80
2018-06-25T11:53:25.528Z,75
2018-06-25T11:54:25.288Z,75
2018-06-25T11:55:25.575Z,80
2018-06-25T11:56:25.604Z,70
2018-06-25T11:57:25.109Z,100
2018-06-25T11:58:25.658Z,100
2018-06-25T11:59:25.414Z,60
2018-06-25T12:00:25.452Z,65
2018-06-25T12:01:25.474Z,45
2018-06-25T12:02:25.622Z,50
2018-06-25T12:03:26.695Z,70
2018-06-25T12:04:25.296Z,75
2018-06-25T12:05:25.877Z,95
2018-06-25T12:06:25.883Z,100
2018-06-25T12:07:25.676Z,100
2018-06-25T12:08:25.409Z,95
2018-06-25T12:09:25.704Z,95
2018-06-25T12:10:24.931Z,100
2018-06-25T12:11:26.025Z,105
2018-06-25T12:12:26.341Z,100
2018-06-25T12:13:25.830Z,90
2018-06-25T12:14:25.984Z,100
2018-06-25T12:15:25.878Z,90
2018-06-25T12:16:26.179Z,85
2018-06-25T12:17:26.306Z,80
2018-06-25T12:18:25.973Z,55
2018-06-25T12:19:26.263Z,55
2018-06-25T12:20:26.310Z,60
2018-06-25T12:21:26.332Z,75
2018-06-25T12:22:26.350Z,115
2018-06-25T12:23:26.378Z,125
2018-06-25T12:24:26.417Z,120
2018-06-25T12:25:26.167Z,115
2018-06-25T12:26:26.536Z,110
2018-06-25T12:27:26.508Z,110
2018-06-25T12:28:26.297Z,115
2018-06-25T12:29:26.289Z,120
2018-06-25T12:30:26.328Z,115
2018-06-25T12:31:26.091Z,90
2018-06-25T12:32:26.371Z,115
2018-06-25T12:33:26.408Z,85
2018-06-25T12:34:26.700Z,95
2018-06-25T12:35:26.471Z,120
2018-06-25T12:36:25.965Z,75
2018-06-25T12:37:26.794Z,120
2018-06-25T12:38:26.293Z,120
2018-06-25T12:39:26.586Z,120
2018-06-25T12:40:26.896Z,130
2018-06-25T12:41:26.759Z,140
2018-06-25T12:42:26.685Z,135
2018-06-25T12:43:26.446Z,105
2018-06-25T12:44:26.779Z,130
2018-06-25T12:45:27.040Z,130
2018-06-25T12:46:26.534Z,80
2018-06-25T12:47:26.839Z,75
2018-06-25T12:48:27.377Z,80
2018-06-25T12:49:26.625Z,95
2018-06-25T12:50:26.926Z,130
2018-06-25T12:51:26.950Z,75
2018-06-25T12:52:26.721Z,85
2018-06-25T12:53:26.217Z,95
2018-06-25T12:54:27.046Z,115
2018-06-25T12:55:26.818Z,160
2018-06-25T12:56:27.125Z,125
2018-06-25T12:57:27.408Z,105
2018-06-25T12:58:27.448Z,120
2018-06-25T12:59:27.210Z,145
2018-06-25T13:00:26.970Z,110
2018-06-25T13:01:27.717Z,90
2018-06-25T13:02:27.397Z,95
2018-06-25T13:03:26.795Z,105
2018-06-25T13:04:26.824Z,120
2018-06-25T13:05:27.661Z,100
2018-06-25T13:06:27.420Z,100
2018-06-25T13:07:27.716Z,75
2018-06-25T13:08:27.767Z,80
2018-06-25T13:09:26.736Z,90
2018-06-25T13:10:27.556Z,85
2018-06-25T13:11:27.574Z,85
2018-06-25T13:12:27.614Z,90
2018-06-25T13:13:27.940Z,75
2018-06-25T13:14:27.994Z,70
2018-06-25T13:15:27.766Z,90
2018-06-25T13:16:27.468Z,90
2018-06-25T13:17:27.776Z,95
2018-06-25T13:18:27.769Z,165
2018-06-25T13:19:28.125Z,150
2018-06-25T13:20:27.592Z,140
2018-06-25T13:21:27.897Z,140
2018-06-25T13:22:27.936Z,110
2018-06-25T13:23:28.222Z,125
2018-06-25T13:24:27.985Z,90
2018-06-25T13:25:28.145Z,95
2018-06-25T13:26:28.062Z,140
2018-06-25T13:27:28.348Z,105
2018-06-25T13:28:28.116Z,115
2018-06-25T13:29:28.168Z,115
2018-06-25T13:30:27.972Z,105
2018-06-25T13:31:28.863Z,105
2018-06-25T13:32:28.288Z,115
2018-06-25T13:33:28.591Z,110
2018-06-25T13:34:28.578Z,110
2018-06-25T13:35:28.602Z,85
2018-06-25T13:36:28.372Z,95
2018-06-25T13:37:27.863Z,120
2018-06-25T13:38:28.287Z,120
2018-06-25T13:39:28.466Z,85
2018-06-25T13:40:28.501Z,70
2018-06-25T13:41:29.036Z,70
2018-06-25T13:42:28.836Z,85
2018-06-25T13:43:28.593Z,110
2018-06-25T13:44:28.802Z,105
2018-06-25T13:45:29.048Z,95
2018-06-25T13:46:28.695Z,120
2018-06-25T13:47:28.720Z,105
2018-06-25T13:48:29.299Z,130
2018-06-25T13:49:28.798Z,130
2018-06-25T13:50:29.094Z,145
2018-06-25T13:51:28.850Z,145
2018-06-25T13:52:29.147Z,125
2018-06-25T13:53:28.933Z,115
2018-06-25T13:54:28.684Z,125
2018-06-25T13:55:28.986Z,120
2018-06-25T13:56:28.748Z,80
2018-06-25T13:57:29.068Z,125
2018-06-25T13:58:29.129Z,110
2018-06-25T13:59:28.849Z,125
2018-06-25T14:00:29.423Z,130
2018-06-25T14:01:29.444Z,130
2018-06-25T14:02:29.472Z,90
2018-06-25T14:03:29.253Z,85
2018-06-25T14:04:29.545Z,85
2018-06-25T14:05:29.574Z,80
2018-06-25T14:06:29.345Z,110
2018-06-25T14:07:29.101Z,85
2018-06-25T14:08:29.666Z,105
2018-06-25T14:09:29.735Z,110
2018-06-25T14:10:29.201Z,65
2018-06-25T14:11:29.630Z,120
2018-06-25T14:12:29.540Z,110
2018-06-25T14:13:29.306Z,120
2018-06-25T14:14:29.606Z,60
2018-06-25T14:15:29.366Z,65
2018-06-25T14:16:29.710Z,125
2018-06-25T14:17:29.713Z,100
2018-06-25T14:18:29.992Z,100
2018-06-25T14:19:29.765Z,135
2018-06-25T14:20:30.067Z,135
2018-06-25T14:21:29.847Z,125
2018-06-25T14:22:29.603Z,125